Time;durP1;ratioP1;P1;durP2;ratioP2;P2;SDS_P1;SDS_P2;PMS_P1;PMS_P2;Temp;Humidity;BMP_temperature;BMP_pressure;BME280_temperature;BME280_humidity;BME280_pressure;Samples;Min_cycle;Max_cycle;Signal;HPM_P1;HPM_P2
2022/07/26 00:02:23;;;;;;;14.15;7.38;;;;;;;;;;4918895;29;20437;-79
2022/07/26 00:04:49;;;;;;;12.32;8.60;;;;;;;;;;4918591;29;20031;-77
2022/07/26 00:07:15;;;;;;;15.85;8.90;;;;;;;;;;4918759;29;20103;-79
2022/07/26 00:09:42;;;;;;;13.13;7.97;;;;;;;;;;4936793;29;20117;-77
2022/07/26 00:12:09;;;;;;;11.00;7.55;;;;;;;;;;4918904;29;20032;-77
2022/07/26 00:14:35;;;;;;;11.20;7.45;;;;;;;;;;4919264;29;20173;-77
2022/07/26 00:17:02;;;;;;;11.05;7.05;;;;;;;;;;4919188;29;20031;-78
2022/07/26 00:19:28;;;;;;;12.52;7.38;;;;;;;;;;4919060;29;20430;-77
2022/07/26 00:24:39;;;;;;;12.38;7.88;;;;;;;;;;4935715;29;20557;-78
2022/07/26 00:27:05;;;;;;;10.85;6.88;;;;;;;;;;4935878;29;20581;-79
2022/07/26 00:29:31;;;;;;;11.50;6.70;;;;;;;;;;4919234;29;20111;-78
2022/07/26 00:31:57;;;;;;;12.07;8.05;;;;;;;;;;4918825;29;20036;-79
2022/07/26 00:34:24;;;;;;;17.48;8.32;;;;;;;;;;4919297;29;20119;-78
2022/07/26 00:36:50;;;;;;;14.23;7.72;;;;;;;;;;4919177;29;20028;-77
2022/07/26 00:39:16;;;;;;;13.68;7.68;;;;;;;;;;4918853;29;20032;-78
2022/07/26 00:41:42;;;;;;;11.38;7.47;;;;;;;;;;4919278;29;20032;-79
2022/07/26 00:44:08;;;;;;;11.93;7.65;;;;;;;;;;4919114;29;20441;-79
2022/07/26 00:46:34;;;;;;;13.98;7.55;;;;;;;;;;4915329;29;20494;-79
2022/07/26 00:49:00;;;;;;;10.23;7.28;;;563.50;2201.60;;;;;;4917423;29;20107;-79
2022/07/26 00:51:28;;;;;;;14.35;7.60;;;563.40;2201.60;;;;;;4931712;29;20118;-79
2022/07/26 00:53:54;;;;;;;12.00;7.75;;;563.50;2201.60;;;;;;4931482;29;20036;-78
2022/07/26 00:56:20;;;;;;;10.30;7.95;;;563.40;2227.20;;;;;;4931694;29;20056;-79
2022/07/26 00:58:46;;;;;;;9.93;7.60;;;538.50;2201.60;;;;;;4931666;29;20036;-79
2022/07/26 01:01:12;;;;;;;10.40;7.28;;;563.20;2227.20;;;;;;4916857;29;20032;-80
2022/07/26 01:03:38;;;;;;;9.30;7.20;;;538.50;2201.60;;;;;;4931665;29;20406;-78
2022/07/26 01:06:04;;;;;;;10.00;7.20;;;538.40;2227.20;;;;;;4915694;29;20040;-79
2022/07/26 01:08:30;;;;;;;12.68;7.10;;;538.50;2201.60;;;;;;4930997;29;20115;-78
2022/07/26 01:10:56;;;;;;;10.23;7.65;;;563.40;2227.20;;;;;;4915798;29;20068;-78
2022/07/26 01:13:22;;;;;;;11.85;7.50;;;563.30;2227.20;;;;;;4931389;29;20044;-79
2022/07/26 01:15:48;;;;;;;8.85;7.35;;;563.30;2227.20;;;;;;4931214;29;20035;-79
2022/07/26 01:18:14;;;;;;;14.88;8.45;;;563.20;2227.20;;;;;;4916582;29;20099;-77
2022/07/26 01:20:42;;;;;;;11.65;7.95;;;538.50;2227.20;;;;;;4915357;29;20079;-79
2022/07/26 01:23:08;;;;;;;13.48;7.47;;;563.40;2227.20;;;;;;4931471;29;20036;-78
2022/07/26 01:25:36;;;;;;;11.43;7.93;;;538.50;2227.20;;;;;;4931484;29;20421;-77
2022/07/26 01:28:03;;;;;;;10.43;7.97;;;538.50;2227.20;;;;;;4931073;29;20067;-78
2022/07/26 01:30:29;;;;;;;11.43;7.80;;;538.50;2252.80;;;;;;4931395;29;20025;-79
2022/07/26 01:32:55;;;;;;;15.88;8.07;;;563.20;2252.80;;;;;;4931262;29;20131;-79
2022/07/26 01:35:21;;;;;;;13.07;8.13;;;538.50;2252.80;;;;;;4931062;29;20060;-78
2022/07/26 01:37:47;;;;;;;9.98;7.57;;;563.30;2252.80;;;;;;4932090;29;20465;-79
2022/07/26 01:40:13;;;;;;;15.73;7.82;;;563.30;2252.80;;;;;;4934766;29;20035;-78
2022/07/26 01:42:40;;;;;;;12.95;8.18;;;563.20;2278.40;;;;;;4934435;29;20394;-78
2022/07/26 01:45:08;;;;;;;12.15;8.32;;;563.20;2252.80;;;;;;4934389;29;20068;-78
2022/07/26 01:47:34;;;;;;;11.63;8.18;;;563.20;2252.80;;;;;;4934536;29;20074;-79
2022/07/26 01:49:59;;;;;;;13.88;8.50;;;538.50;2252.80;;;;;;4934345;29;20056;-78
2022/07/26 01:52:28;;;;;;;12.15;7.80;;;563.20;2252.80;;;;;;4934396;29;20043;-79
2022/07/26 01:54:54;;;;;;;10.05;6.82;;;538.50;2252.80;;;;;;4934343;29;20028;-77
2022/07/26 01:57:20;;;;;;;26.52;8.25;;;563.20;2278.40;;;;;;4919243;29;20088;-79
2022/07/26 01:59:45;;;;;;;11.95;8.15;;;538.50;2252.80;;;;;;4934330;29;20031;-80
2022/07/26 02:02:11;;;;;;;8.57;7.20;;;538.50;2252.80;;;;;;4918378;29;20462;-78
2022/07/26 02:07:21;;;;;;;12.55;8.15;;;563.20;2252.80;;;;;;4919505;29;20099;-78
2022/07/26 02:09:47;;;;;;;13.55;7.85;;;563.20;2252.80;;;;;;4919411;29;20028;-78
2022/07/26 02:12:13;;;;;;;12.15;7.95;;;563.30;2252.80;;;;;;4918259;29;20040;-78
2022/07/26 02:14:39;;;;;;;12.52;7.75;;;563.30;2278.40;;;;;;4918283;29;20039;-78
2022/07/26 02:17:05;;;;;;;11.10;8.43;;;563.20;2278.40;;;;;;4919008;29;20025;-78
2022/07/26 02:19:31;;;;;;;13.18;8.38;;;538.30;2278.40;;;;;;4919418;29;20035;-79
2022/07/26 02:21:57;;;;;;;15.10;8.27;;;538.40;2278.40;;;;;;4934018;29;20032;-79
2022/07/26 02:24:27;;;;;;;11.82;8.82;;;538.10;2304.00;;;;;;4933730;29;20508;-78
2022/07/26 02:26:53;;;;;;;10.23;8.23;;;538.00;2304.00;;;;;;4933860;29;20032;-78
2022/07/26 02:29:19;;;;;;;17.00;9.02;;;538.00;2304.00;;;;;;4918069;29;20028;-79
2022/07/26 02:31:45;;;;;;;11.10;7.82;;;538.00;2304.00;;;;;;4917478;29;20116;-78
2022/07/26 02:34:11;;;;;;;15.82;10.73;;;537.90;2329.60;;;;;;4933934;29;20039;-79
2022/07/26 02:36:37;;;;;;;14.63;8.00;;;537.80;2329.60;;;;;;4933895;29;20039;-79
2022/07/26 02:39:03;;;;;;;13.68;8.50;;;;;;;;;;4933619;29;20051;-78
2022/07/26 02:41:30;;;;;;;13.27;9.75;;;;;;;;;;4917934;29;20032;-79
2022/07/26 02:43:56;;;;;;;10.48;7.75;;;;;;;;;;4917673;29;20028;-79
2022/07/26 02:46:22;;;;;;;14.15;10.10;;;;;;;;;;4917045;29;20486;-79
2022/07/26 02:48:49;;;;;;;12.98;9.00;;;;;;;;;;4917021;29;20032;-79
2022/07/26 02:51:15;;;;;;;12.05;8.63;;;;;;;;;;4917599;29;20055;-78
2022/07/26 02:53:41;;;;;;;15.45;9.32;;;;;;;;;;4917277;29;20382;-78
2022/07/26 02:56:08;;;;;;;12.80;8.95;;;;;;;;;;4917437;29;20028;-78
2022/07/26 02:58:34;;;;;;;10.32;8.00;;;;;;;;;;4918321;29;20088;-77
2022/07/26 03:01:00;;;;;;;12.40;9.20;;;;;;;;;;4918950;29;20039;-78
2022/07/26 03:03:26;;;;;;;13.95;8.38;;;;;;;;;;4917344;29;20123;-78
2022/07/26 03:05:52;;;;;;;11.00;8.65;;;;;;;;;;4916978;29;20103;-77
2022/07/26 03:08:18;;;;;;;11.73;8.75;;;537.80;2355.20;;;;;;4917339;29;20032;-77
2022/07/26 03:10:44;;;;;;;12.35;9.18;;;512.90;2355.20;;;;;;4918262;29;20390;-78
2022/07/26 03:13:10;;;;;;;11.95;8.55;;;;;;;;;;4932597;29;20036;-78
2022/07/26 03:15:36;;;;;;;12.30;8.90;;;;;;;;;;4917082;29;20035;-77
2022/07/26 03:18:02;;;;;;;13.13;8.00;;;;;;;;;;4917085;29;20024;-78
2022/07/26 03:20:28;;;;;;;12.80;8.63;;;512.70;2380.80;;;;;;4916745;29;20481;-78
2022/07/26 03:22:54;;;;;;;12.40;9.63;;;512.60;2380.80;;;;;;4918403;29;20032;-78
2022/07/26 03:25:20;;;;;;;12.98;8.15;;;512.30;2380.80;;;;;;4918264;29;20028;-79
2022/07/26 03:27:46;;;;;;;14.13;8.93;;;512.30;2380.80;;;;;;4932369;29;20031;-78
2022/07/26 03:30:13;;;;;;;11.63;8.13;;;512.50;2380.80;;;;;;4932780;29;20024;-79
2022/07/26 03:32:39;;;;;;;9.93;7.85;;;512.60;2380.80;;;;;;4932813;29;20130;-77
2022/07/26 03:35:06;;;;;;;12.52;9.27;;;512.60;2380.80;;;;;;4932267;29;20028;-78
2022/07/26 03:37:32;;;;;;;12.95;8.82;;;512.60;2380.80;;;;;;4918410;29;20039;-78
2022/07/26 03:39:58;;;;;;;12.63;9.15;;;512.40;2380.80;;;;;;4932985;29;20028;-78
2022/07/26 03:42:24;;;;;;;13.38;8.73;;;512.50;2380.80;;;;;;4932525;29;20039;-78
2022/07/26 03:44:49;;;;;;;14.20;8.50;;;512.60;2380.80;;;;;;4916307;29;20087;-77
2022/07/26 03:47:15;;;;;;;15.52;8.68;;;512.50;2380.80;;;;;;4932706;29;20032;-77
2022/07/26 03:49:41;;;;;;;11.82;8.30;;;512.60;2380.80;;;;;;4932217;29;20537;-78
2022/07/26 03:52:09;;;;;;;12.43;8.85;;;512.60;2380.80;;;;;;4934235;29;20024;-77
2022/07/26 03:54:35;;;;;;;13.45;9.05;;;512.70;2380.80;;;;;;4957015;29;20079;-78
2022/07/26 03:57:01;;;;;;;10.93;8.63;;;512.60;2380.80;;;;;;4925135;29;20069;-78
2022/07/26 03:59:27;;;;;;;15.90;9.45;;;512.40;2380.80;;;;;;4937002;29;20024;-78
2022/07/26 04:01:53;;;;;;;13.65;9.40;;;512.40;2380.80;;;;;;4932910;29;20474;-77
2022/07/26 04:04:19;;;;;;;15.88;8.98;;;512.30;2380.80;;;;;;4932393;29;20079;-78
2022/07/26 04:06:46;;;;;;;13.68;9.63;;;512.40;2380.80;;;;;;4932058;29;20028;-78
2022/07/26 04:09:13;;;;;;;11.02;8.88;;;512.60;2380.80;;;;;;4931805;29;20407;-77
2022/07/26 04:11:39;;;;;;;10.70;8.43;;;512.60;2380.80;;;;;;4930985;29;20463;-77
2022/07/26 04:14:05;;;;;;;12.98;9.20;;;512.30;2380.80;;;;;;4917522;29;20032;-78
2022/07/26 04:16:31;;;;;;;14.02;10.40;;;512.40;2380.80;;;;;;4917309;29;20056;-78
2022/07/26 04:18:57;;;;;;;14.18;9.38;;;512.40;2380.80;;;;;;4932142;29;20028;-78
2022/07/26 04:21:23;;;;;;;15.07;8.95;;;512.00;2380.80;;;;;;4932065;29;20387;-78
2022/07/26 04:23:49;;;;;;;13.20;9.30;;;512.10;2380.80;;;;;;4915899;29;20036;-77
2022/07/26 04:26:15;;;;;;;10.55;8.27;;;512.60;2380.80;;;;;;4931999;29;20099;-77
2022/07/26 04:28:41;;;;;;;13.45;9.52;;;512.30;2380.80;;;;;;4932157;29;20155;-77
2022/07/26 04:31:07;;;;;;;14.55;9.75;;;512.50;2380.80;;;;;;4931668;29;20036;-78
2022/07/26 04:33:33;;;;;;;12.25;9.15;;;512.30;2380.80;;;;;;4931807;29;20130;-78
2022/07/26 04:36:00;;;;;;;14.80;9.70;;;512.40;2380.80;;;;;;4931827;29;20024;-78
2022/07/26 04:38:25;;;;;;;16.98;10.15;;;512.60;2380.80;;;;;;4915689;29;20397;-78
2022/07/26 04:40:51;;;;;;;15.98;10.52;;;512.70;2380.80;;;;;;4931941;29;20032;-77
2022/07/26 04:43:18;;;;;;;17.15;10.13;;;512.80;2380.80;;;;;;4917178;29;20083;-78
2022/07/26 04:45:47;;;;;;;13.00;10.07;;;512.60;2380.80;;;;;;4931205;29;20056;-78
2022/07/26 04:48:14;;;;;;;14.40;9.35;;;512.60;2380.80;;;;;;4931806;29;20038;-77
2022/07/26 04:50:40;;;;;;;16.08;10.80;;;512.60;2380.80;;;;;;4931399;29;20032;-77
2022/07/26 04:53:08;;;;;;;19.98;10.05;;;512.70;2380.80;;;;;;4931606;29;20047;-78
2022/07/26 04:55:34;;;;;;;18.85;11.02;;;512.70;2380.80;;;;;;4931814;29;20104;-77
2022/07/26 04:57:59;;;;;;;19.17;11.93;;;512.70;2380.80;;;;;;4931447;29;20036;-77
2022/07/26 05:00:25;;;;;;;16.25;11.05;;;512.60;2380.80;;;;;;4915789;29;20024;-78
2022/07/26 05:02:57;;;;;;;16.17;11.40;;;512.60;2380.80;;;;;;4931594;29;20028;-78
2022/07/26 05:05:25;;;;;;;17.20;10.13;;;512.40;2380.80;;;;;;4915644;29;20028;-79
2022/07/26 05:07:54;;;;;;;20.10;10.43;;;512.50;2380.80;;;;;;4916753;29;20064;-78
2022/07/26 05:10:21;;;;;;;17.70;9.80;;;512.90;2380.80;;;;;;4916989;29;20111;-78
2022/07/26 05:12:48;;;;;;;16.00;10.45;;;537.70;2406.40;;;;;;4933507;29;20040;-78
2022/07/26 05:15:14;;;;;;;15.80;10.82;;;537.70;2406.40;;;;;;4920415;29;20032;-79
2022/07/26 05:17:41;;;;;;;17.55;10.88;;;538.00;2406.40;;;;;;4935147;29;20092;-78
2022/07/26 05:20:08;;;;;;;20.45;10.93;;;;;;;;;;4919935;29;20075;-78
2022/07/26 05:22:35;;;;;;;13.30;9.90;;;;;;;;;;4920535;29;20028;-78
2022/07/26 05:25:02;;;;;;;14.13;10.43;;;538.20;2406.40;;;;;;4919097;29;20020;-78
2022/07/26 05:27:28;;;;;;;18.30;10.23;;;538.10;2406.40;;;;;;4920062;29;20039;-78
2022/07/26 05:29:54;;;;;;;15.52;9.73;;;537.80;2406.40;;;;;;4934865;29;20028;-79
2022/07/26 05:32:24;;;;;;;12.68;10.23;;;537.80;2406.40;;;;;;4934718;29;20128;-78
2022/07/26 05:34:50;;;;;;;16.13;10.70;;;538.00;2406.40;;;;;;4919921;29;20164;-78
2022/07/26 05:37:15;;;;;;;17.35;11.13;;;538.10;2406.40;;;;;;4920034;29;20064;-79
2022/07/26 05:39:41;;;;;;;17.92;9.82;;;538.10;2406.40;;;;;;4919627;29;20103;-78
2022/07/26 05:42:07;;;;;;;10.88;9.20;;;538.40;2406.40;;;;;;4934648;29;20427;-79
2022/07/26 05:44:33;;;;;;;11.52;8.75;;;538.40;2406.40;;;;;;4937428;29;20497;-78
2022/07/26 05:46:59;;;;;;;13.90;8.63;;;538.40;2406.40;;;;;;4938760;29;20046;-79
2022/07/26 05:49:25;;;;;;;11.23;8.60;;;563.40;2432.00;;;;;;4937757;29;20064;-79
2022/07/26 05:51:51;;;;;;;14.95;8.50;;;563.40;2432.00;;;;;;4938845;29;20430;-79
2022/07/26 05:54:19;;;;;;;19.15;9.23;;;563.50;2432.00;;;;;;4937379;29;20508;-78
2022/07/26 05:56:45;;;;;;;15.52;9.25;;;563.60;2432.00;;;;;;4938550;29;20099;-79
2022/07/26 05:59:11;;;;;;;14.63;9.35;;;563.70;2432.00;;;;;;4937494;29;20023;-80
2022/07/26 06:01:37;;;;;;;14.02;9.65;;;563.80;2432.00;;;;;;4937249;29;20118;-80
2022/07/26 06:04:03;;;;;;;13.80;10.63;;;563.90;2432.00;;;;;;4937671;29;20024;-79
2022/07/26 06:06:29;;;;;;;21.58;14.30;;;563.90;2432.00;;;;;;4921530;29;20032;-79
2022/07/26 06:08:55;;;;;;;22.08;15.70;;;564.10;2432.00;;;;;;4937143;29;20036;-79
2022/07/26 06:11:21;;;;;;;30.65;18.23;;;588.80;2432.00;;;;;;4938714;29;20031;-78
2022/07/26 06:13:47;;;;;;;16.65;12.82;;;588.80;2432.00;;;;;;4937260;29;20043;-79
2022/07/26 06:16:13;;;;;;;17.48;13.60;;;;;;;;;;4936977;29;20031;-78
2022/07/26 06:18:39;;;;;;;22.52;16.45;;;;;;;;;;4938401;29;20057;-79
2022/07/26 06:21:06;;;;;;;15.52;12.93;;;;;;;;;;4921428;29;20035;-79
2022/07/26 06:23:33;;;;;;;18.83;13.85;;;;;;;;;;4937541;29;20030;-79
2022/07/26 06:25:59;;;;;;;17.77;13.38;;;;;;;;;;4921236;29;20023;-79
2022/07/26 06:28:25;;;;;;;16.45;10.98;;;;;;;;;;4921352;29;20512;-79
2022/07/26 06:30:51;;;;;;;10.80;8.73;;;;;;;;;;4921139;29;20027;-79
2022/07/26 06:33:17;;;;;;;13.27;9.35;;;;;;;;;;4921107;29;20062;-79
2022/07/26 06:35:43;;;;;;;14.18;8.70;;;614.80;2278.40;;;;;;4920964;29;20063;-79
2022/07/26 06:38:09;;;;;;;11.00;8.18;;;614.80;2278.40;;;;;;4937905;29;20495;-78
2022/07/26 06:40:35;;;;;;;13.98;8.65;;;615.00;2252.80;;;;;;4937063;29;20043;-79
2022/07/26 06:43:01;;;;;;;10.68;8.00;;;;;;;;;;4937728;29;20111;-79
2022/07/26 06:45:28;;;;;;;10.07;7.82;;;;;;;;;;4920442;29;20054;-78
2022/07/26 06:47:54;;;;;;;9.82;7.93;;;640.00;2227.20;;;;;;4920849;29;20032;-79
2022/07/26 06:50:21;;;;;;;11.88;8.35;;;640.00;2201.60;;;;;;4936323;29;20437;-80
2022/07/26 06:52:47;;;;;;;13.18;8.07;;;640.30;2201.60;;;;;;4920650;29;20043;-79
2022/07/26 06:55:13;;;;;;;10.38;8.75;;;640.20;2176.00;;;;;;4936490;29;20338;-80
2022/07/26 06:57:40;;;;;;;16.08;10.48;;;640.40;2201.60;;;;;;4936025;29;20489;-80
2022/07/26 07:00:07;;;;;;;13.13;8.65;;;;;;;;;;4935900;29;20564;-80
2022/07/26 07:02:34;;;;;;;13.45;9.80;;;;;;;;;;4917247;29;20020;-81
2022/07/26 07:05:00;;;;;;;11.57;8.50;;;;;;;;;;4916976;29;20024;-80
2022/07/26 07:07:26;;;;;;;10.63;8.20;;;;;;;;;;4917237;29;20067;-80
2022/07/26 07:09:52;;;;;;;9.02;7.07;;;;;;;;;;4917239;29;20025;-79
2022/07/26 07:12:18;;;;;;;12.95;9.40;;;666.00;2124.80;;;;;;4916765;29;20040;-79
2022/07/26 07:14:44;;;;;;;10.45;8.05;;;666.20;2150.40;;;;;;4917221;29;20032;-79
2022/07/26 07:17:10;;;;;;;11.82;8.55;;;;;;;;;;4917060;29;20031;-79
2022/07/26 07:19:37;;;;;;;12.80;8.48;;;691.30;2124.80;;;;;;4916577;29;20164;-81
2022/07/26 07:22:04;;;;;;;11.48;8.55;;;;;;;;;;4917112;29;20040;-80
2022/07/26 07:24:30;;;;;;;12.27;8.75;;;691.50;2073.60;;;;;;4917903;29;20032;-80
2022/07/26 07:26:56;;;;;;;12.70;7.90;;;691.50;2073.60;;;;;;4918021;29;20032;-79
2022/07/26 07:29:22;;;;;;;11.00;8.32;;;;;;;;;;4918508;29;20059;-80
2022/07/26 07:31:48;;;;;;;13.88;8.35;;;;;;;;;;4916469;29;20024;-80
2022/07/26 07:34:15;;;;;;;10.18;7.65;;;;;;;;;;4918063;29;20478;-80
2022/07/26 07:36:41;;;;;;;11.38;8.60;;;;;;;;;;4915942;29;20025;-80
2022/07/26 07:39:07;;;;;;;11.93;7.82;;;;;;;;;;4917643;29;20043;-79
2022/07/26 07:41:35;;;;;;;17.73;7.97;;;;;;;;;;4916762;29;20478;-80
2022/07/26 07:44:01;;;;;;;13.18;7.40;;;;;;;;;;4916336;29;20024;-81
2022/07/26 07:46:27;;;;;;;10.52;8.70;;;;;;;;;;4914283;29;20135;-83
2022/07/26 07:48:53;;;;;;;13.18;7.65;;;;;;;;;;4916460;29;20020;-83
2022/07/26 07:51:19;;;;;;;10.77;8.15;;;;;;;;;;4916900;29;20043;-81
2022/07/26 07:53:45;;;;;;;9.82;7.55;;;;;;;;;;4915837;29;20447;-82
2022/07/26 07:56:11;;;;;;;11.45;7.93;;;;;;;;;;4916176;29;20028;-81
2022/07/26 07:58:38;;;;;;;9.43;7.63;;;;;;;;;;4916531;29;20478;-82
2022/07/26 08:01:04;;;;;;;10.77;7.90;;;717.70;1971.20;;;;;;4916357;29;20119;-82
2022/07/26 08:03:30;;;;;;;8.60;6.97;;;;;;;;;;4932428;29;20179;-80
2022/07/26 08:05:56;;;;;;;11.10;8.50;;;742.60;1945.60;;;;;;4916069;29;20024;-81
2022/07/26 08:08:22;;;;;;;10.32;7.05;;;742.50;1945.60;;;;;;4932138;29;20370;-81
2022/07/26 08:10:48;;;;;;;11.43;7.53;;;;;;;;;;4915955;29;20028;-80
2022/07/26 08:13:14;;;;;;;12.32;7.65;;;;;;;;;;4913234;29;20036;-80
2022/07/26 08:15:40;;;;;;;14.88;7.97;;;743.10;1894.40;;;;;;4915881;29;20036;-79
2022/07/26 08:18:06;;;;;;;8.48;6.80;;;;;;;;;;4931444;29;20116;-81
2022/07/26 08:20:32;;;;;;;8.73;6.85;;;;;;;;;;4915448;29;20024;-82
2022/07/26 08:22:58;;;;;;;14.13;8.98;;;;;;;;;;4916019;29;20454;-81
2022/07/26 08:25:24;;;;;;;8.35;6.53;;;;;;;;;;4915901;29;20035;-81
2022/07/26 08:27:50;;;;;;;9.32;7.40;;;;;;;;;;4915533;29;20111;-80
2022/07/26 08:30:17;;;;;;;8.88;6.88;;;;;;;;;;4915871;29;20024;-80
2022/07/26 08:32:43;;;;;;;12.43;7.00;;;;;;;;;;4912505;29;20037;-80
2022/07/26 08:35:10;;;;;;;7.93;6.43;;;;;;;;;;4915675;29;20111;-81
2022/07/26 08:37:36;;;;;;;7.80;6.90;;;;;;;;;;4921142;29;20064;-83
2022/07/26 08:40:04;;;;;;;9.23;7.95;;;794.00;1843.20;;;;;;4914698;29;20025;-82
2022/07/26 08:42:30;;;;;;;12.30;10.75;;;;;;;;;;4931548;29;20031;-82
2022/07/26 08:44:57;;;;;;;9.30;6.93;;;;;;;;;;4914850;29;20140;-82
2022/07/26 08:47:23;;;;;;;10.40;8.05;;;;;;;;;;4916937;29;20027;-81
2022/07/26 08:49:49;;;;;;;9.82;8.07;;;;;;;;;;4921070;29;20024;-83
2022/07/26 08:52:15;;;;;;;11.18;7.10;;;;;;;;;;4919788;29;20497;-78
2022/07/26 08:54:44;;;;;;;8.18;6.45;;;819.40;1689.60;;;;;;4919733;29;20115;-80
2022/07/26 08:57:10;;;;;;;10.50;6.95;;;819.20;1715.20;;;;;;4935389;29;20114;-80
2022/07/26 08:59:36;;;;;;;9.07;7.07;;;819.30;1740.80;;;;;;4935868;29;20039;-81
2022/07/26 09:02:08;;;;;;;10.80;6.95;;;819.80;1740.80;;;;;;4935641;29;20036;-80
2022/07/26 09:04:36;;;;;;;7.32;6.05;;;819.60;1689.60;;;;;;4935154;29;20096;-80
2022/07/26 09:07:07;;;;;;;8.82;7.88;;;819.80;1740.80;;;;;;4953751;29;20095;-81
2022/07/26 09:09:39;;;;;;;9.52;8.60;;;820.00;1689.60;;;;;;4943995;28;20035;-79
2022/07/26 09:12:17;;;;;;;11.20;7.20;;;820.10;1715.20;;;;;;4944017;29;20036;-80
2022/07/26 09:14:45;;;;;;;8.50;6.80;;;844.90;1715.20;;;;;;4935413;29;20036;-79
2022/07/26 09:17:13;;;;;;;7.03;6.22;;;845.20;1740.80;;;;;;4935442;29;20025;-81
2022/07/26 09:19:39;;;;;;;8.43;6.18;;;845.30;1715.20;;;;;;4934991;29;20115;-80
2022/07/26 09:22:13;;;;;;;8.93;7.00;;;845.40;1740.80;;;;;;4935066;29;20188;-81
2022/07/26 09:24:43;;;;;;;6.57;5.88;;;845.50;1689.60;;;;;;4934633;29;20032;-80
2022/07/26 09:27:11;;;;;;;11.00;6.45;;;845.60;1664.00;;;;;;4934934;29;20053;-80
2022/07/26 09:29:45;;;;;;;9.25;6.20;;;845.70;1689.60;;;;;;4935019;29;20063;-79
2022/07/26 09:32:15;;;;;;;9.95;7.15;;;845.60;1612.80;;;;;;4932702;29;20394;-79
2022/07/26 09:34:42;;;;;;;9.93;7.97;;;870.50;1664.00;;;;;;4920067;29;20024;-79
2022/07/26 09:37:08;;;;;;;10.95;8.68;;;870.80;1638.40;;;;;;4932970;29;20175;-79
2022/07/26 09:39:52;;;;;;;9.40;6.75;;;;;;;;;;4934457;29;20122;-79
2022/07/26 09:42:18;;;;;;;12.05;9.27;;;871.10;1638.40;;;;;;4915020;29;20028;-78
2022/07/26 09:44:44;;;;;;;9.60;6.63;;;870.90;1587.20;;;;;;4918206;29;20048;-80
2022/07/26 09:47:10;;;;;;;7.57;6.57;;;871.20;1587.20;;;;;;4934248;29;20463;-81
2022/07/26 09:49:36;;;;;;;7.88;7.07;;;871.20;1561.60;;;;;;4934430;29;20036;-80
2022/07/26 09:52:12;;;;;;;6.72;6.05;;;871.10;1612.80;;;;;;4917831;29;20032;-80
2022/07/26 09:54:38;;;;;;;7.95;6.93;;;871.30;1561.60;;;;;;4916762;29;20035;-80
2022/07/26 09:57:04;;;;;;;12.60;6.38;;;871.30;1536.00;;;;;;4918362;29;20028;-81
2022/07/26 09:59:30;;;;;;;9.95;6.65;;;871.30;1510.40;;;;;;4932669;29;20035;-81
2022/07/26 10:01:57;;;;;;;7.35;6.20;;;896.00;1510.40;;;;;;4934037;29;20146;-81
2022/07/26 10:04:23;;;;;;;12.43;11.18;;;896.20;1536.00;;;;;;4919406;29;20016;-80
2022/07/26 10:06:50;;;;;;;14.20;8.15;;;896.40;1536.00;;;;;;4933607;29;20096;-78
2022/07/26 10:09:17;;;;;;;10.20;7.78;;;896.90;1561.60;;;;;;4918558;29;20025;-80
2022/07/26 10:12:04;;;;;;;9.43;7.28;;;921.60;1561.60;;;;;;4918571;29;20039;-79
2022/07/26 10:14:41;;;;;;;7.72;6.68;;;921.90;1536.00;;;;;;4915764;29;20099;-79
2022/07/26 10:17:25;;;;;;;8.13;6.72;;;922.00;1536.00;;;;;;4916047;29;20469;-78
2022/07/26 10:19:54;;;;;;;7.60;6.53;;;922.30;1510.40;;;;;;4929532;29;20151;-76
2022/07/26 10:22:41;;;;;;;12.65;8.27;;;922.20;1484.80;;;;;;4918971;29;20024;-79
2022/07/26 10:25:31;;;;;;;9.93;8.43;;;922.40;1510.40;;;;;;4933814;29;20028;-79
2022/07/26 10:27:57;;;;;;;12.65;10.52;;;922.50;1484.80;;;;;;4925633;29;20051;-78
2022/07/26 10:30:26;;;;;;;11.68;7.93;;;947.30;1484.80;;;;;;4933159;29;20032;-77
2022/07/26 10:33:00;;;;;;;9.50;6.90;;;947.60;1433.60;;;;;;4933454;29;20142;-79
2022/07/26 10:35:39;;;;;;;12.00;10.80;;;947.20;1433.60;;;;;;4918645;29;20032;-79
2022/07/26 10:38:11;;;;;;;9.80;7.90;;;947.60;1459.20;;;;;;4933367;29;20028;-77
2022/07/26 10:40:54;;;;;;;10.95;8.73;;;947.80;1459.20;;;;;;4933283;29;20024;-79
2022/07/26 10:43:20;;;;;;;7.55;6.65;;;948.00;1408.00;;;;;;4933544;29;20068;-79
2022/07/26 10:45:45;;;;;;;8.40;7.57;;;947.90;1382.40;;;;;;4933035;29;20143;-79
2022/07/26 10:48:21;;;;;;;7.35;6.65;;;947.70;1408.00;;;;;;4918681;29;20028;-78
2022/07/26 10:50:51;;;;;;;9.55;7.13;;;947.70;1382.40;;;;;;4933461;29;20039;-82
2022/07/26 10:53:25;;;;;;;9.18;7.32;;;947.70;1382.40;;;;;;4933700;29;20039;-81
2022/07/26 10:55:56;;;;;;;9.40;7.38;;;947.90;1382.40;;;;;;4933200;29;20028;-82
2022/07/26 10:58:24;;;;;;;7.65;6.85;;;972.80;1459.20;;;;;;4933226;29;20092;-81
2022/07/26 11:01:02;;;;;;;7.60;6.68;;;972.90;1408.00;;;;;;4933395;29;20028;-83
2022/07/26 11:03:51;;;;;;;9.98;7.20;;;973.20;1408.00;;;;;;4933165;29;20035;-81
2022/07/26 11:06:18;;;;;;;8.25;6.93;;;973.30;1408.00;;;;;;4933227;29;20115;-81
2022/07/26 11:08:46;;;;;;;7.63;6.82;;;973.60;1382.40;;;;;;4932865;29;20200;-82
2022/07/26 11:11:26;;;;;;;9.40;6.80;;;973.70;1408.00;;;;;;4933207;29;20546;-82
2022/07/26 11:13:51;;;;;;;9.32;7.68;;;998.40;1408.00;;;;;;4933261;29;20118;-82
2022/07/26 11:16:17;;;;;;;8.77;7.22;;;998.70;1382.40;;;;;;4918357;29;20060;-82
2022/07/26 11:18:43;;;;;;;7.05;6.35;;;998.50;1356.80;;;;;;4933177;29;20032;-83
2022/07/26 11:21:17;;;;;;;9.63;7.00;;;973.30;1331.20;;;;;;4932871;29;20044;-81
2022/07/26 11:23:45;;;;;;;8.35;7.45;;;973.50;1356.80;;;;;;4932846;29;20430;-81
2022/07/26 11:26:33;;;;;;;8.57;7.50;;;973.70;1331.20;;;;;;4932820;29;20060;-81
2022/07/26 11:29:30;;;;;;;;;;;;;;;;;;;;;
2022/07/26 11:32:27;;;;;;;8.73;7.38;;;998.60;1408.00;;;;;;4917621;29;20385;-82
2022/07/26 11:38:22;;;;;;;11.50;6.72;;;998.90;1331.20;;;;;;4917012;29;20056;-81
2022/07/26 11:40:51;;;;;;;7.28;6.53;;;998.90;1382.40;;;;;;4932320;29;20035;-81
2022/07/26 11:43:17;;;;;;;6.72;5.82;;;;;;;;;;4932552;29;20546;-80
2022/07/26 11:45:51;;;;;;;7.78;6.13;;;1024.10;1305.60;;;;;;4931875;29;20498;-80
2022/07/26 11:48:17;;;;;;;9.57;6.90;;;1024.30;1305.60;;;;;;4932095;29;20047;-79
2022/07/26 11:50:45;;;;;;;8.50;7.20;;;1024.50;1305.60;;;;;;4917043;29;20028;-82
2022/07/26 11:53:21;;;;;;;7.95;6.55;;;;;;;;;;4932510;29;20119;-81
2022/07/26 11:55:47;;;;;;;8.38;6.47;;;1024.90;1280.00;;;;;;4916504;29;20469;-82
2022/07/26 11:58:13;;;;;;;7.47;6.03;;;1049.60;1280.00;;;;;;4932104;29;20119;-79
2022/07/26 12:00:39;;;;;;;9.75;7.70;;;1024.60;1280.00;;;;;;4932325;29;20028;-81
2022/07/26 12:03:05;;;;;;;7.90;6.65;;;1024.60;1254.40;;;;;;4916278;29;20036;-81
2022/07/26 12:05:32;;;;;;;8.32;6.55;;;999.30;1254.40;;;;;;4931853;29;20032;-80
2022/07/26 12:08:03;;;;;;;14.50;10.88;;;999.30;1280.00;;;;;;4932121;29;20462;-80
2022/07/26 12:10:30;;;;;;;8.73;5.93;;;1024.50;1280.00;;;;;;4931786;29;20075;-81
2022/07/26 12:13:09;;;;;;;7.60;6.82;;;1024.40;1254.40;;;;;;4931298;29;20024;-79
2022/07/26 12:15:46;;;;;;;8.20;7.18;;;999.30;1228.80;;;;;;4915799;29;20032;-79
2022/07/26 12:18:22;;;;;;;10.70;7.43;;;1024.40;1254.40;;;;;;4932100;29;20020;-78
2022/07/26 12:21:00;;;;;;;15.18;7.13;;;1024.70;1254.40;;;;;;4931529;29;20028;-81
2022/07/26 12:23:44;;;;;;;7.55;6.75;;;1049.80;1280.00;;;;;;4915956;29;20036;-80
2022/07/26 12:26:31;;;;;;;11.27;10.18;;;1049.60;1228.80;;;;;;4915909;29;20024;-80
2022/07/26 12:28:58;;;;;;;13.00;10.93;;;1050.00;1228.80;;;;;;4917182;29;20032;-80
2022/07/26 12:31:29;;;;;;;10.77;8.73;;;1050.20;1228.80;;;;;;4931803;29;20042;-80
2022/07/26 12:34:11;;;;;;;8.20;6.70;;;1050.20;1254.40;;;;;;4916886;29;20068;-80
2022/07/26 12:36:37;;;;;;;8.60;5.70;;;1050.30;1203.20;;;;;;4931186;29;20044;-82
2022/07/26 12:39:06;;;;;;;7.03;6.10;;;1050.40;1203.20;;;;;;4931307;29;20040;-81
2022/07/26 12:41:41;;;;;;;11.75;6.35;;;1049.90;1203.20;;;;;;4931293;29;20434;-81
2022/07/26 12:44:11;;;;;;;7.35;5.43;;;1075.20;1228.80;;;;;;4931735;29;20359;-82
2022/07/26 12:46:37;;;;;;;7.80;5.90;;;1075.20;1203.20;;;;;;4930796;29;20044;-82
2022/07/26 12:49:52;;;;;;;8.57;6.53;;;1050.30;1177.60;;;;;;4915916;29;20028;-82
2022/07/26 12:52:22;;;;;;;7.18;6.10;;;1050.20;1177.60;;;;;;4914125;29;20036;-83
2022/07/26 12:54:58;;;;;;;8.63;5.80;;;1050.30;1228.80;;;;;;4931647;29;20028;-81
2022/07/26 12:57:27;;;;;;;8.60;5.65;;;1050.40;1203.20;;;;;;4931684;29;20026;-82